Eureka, WI (54934)

10:16 AM CDT on October 30, 2014 (GMT -0500)
City of Omro | Change Station
CLOSE
Current Station
Personal Weather Station
Location: Omro, WI
Elevation: 764 ft
Nearby Weather Stations
Active Advisory: Special Statement

Elev 764 ft 44.03 °N, 88.75 °W | Updated 10 seconds ago

Partly Cloudy
Partly Cloudy
39.9 °F
Feels Like 37 °F
N
4.6
Wind Variable Wind from WSW
Gusts 5.8 mph

Today
High -- | Low -- °F
--% Chance of Precip.
Yesterday
High -- | Low -- °F
Precip. -- in
7:29 AM 5:48 PM
Waxing Crescent, 45% visible
Pressure 30.11 in
Visibility 10.0 miles
Clouds Mostly Cloudy 9500 ft
Windchill 37 °F
Dew Point 35 °F
Humidity 84%
Rainfall 0.00 in
Snow Depth Not available.
UV 1 out of 12
Pollen .20 out of 12
Air Quality Not available.
Flu Activity Not available.
METAR KOSH 301453Z 22004KT 10SM BKN095 04/02 A3008 RMK AO2 SLP196 T00440017 50000

More Conditions Fewer Conditions

Pressure 30.11 in
Visibility 10.0 miles
Clouds Mostly Cloudy 9500 ft
Windchill 37 °F
Dew Point 35 °F
Humidity 84%
Rainfall 0.00 in
Snow Depth Not available.
UV 1 out of 12
Pollen .20 out of 12
Air Quality Not available.
Flu Activity Not available.
METAR KOSH 301453Z 22004KT 10SM BKN095 04/02 A3008 RMK AO2 SLP196 T00440017 50000

More Conditions Fewer Conditions

10-Day Weather Forecast

Almanac

Astronomy

Oct. 30, 2014 Rise Set
Actual Time
Civil Twilight
Nautical Twilight
Astronomical Twilight
Moon
Length of Visible Light
Length of Day
Tomorrow will be .
, % of the Moon is Illuminated

Today's Extremes

State Highs State Lows

Community

WunderPhotos

Upload Photos

1,766,387 photos uploaded!

WunderBlogs® & News

Nearby

Air Quality

  Air Quality AQ Index Pollutant
Not available.

Snow Depth

Station Depth Elevation

Earthquake Activity

City Distance Mag. Time & Date
Minimum magnitude displayed is 2.5.

Coastal Water Temperatures

Place Temperature

Nearby Weather Stations